createdAt,value
2017-11-19T00:01:53.060Z,14.00
2017-11-19T00:04:21.294Z,14.00
2017-11-19T00:06:49.864Z,14.00
2017-11-19T00:09:18.104Z,14.00
2017-11-19T00:11:46.337Z,14.00
2017-11-19T00:14:14.979Z,14.00
2017-11-19T00:16:43.484Z,14.00
2017-11-19T00:19:11.709Z,14.00
2017-11-19T00:21:39.958Z,14.00
2017-11-19T00:24:08.404Z,14.00
2017-11-19T00:26:36.652Z,14.00
2017-11-19T00:29:04.876Z,14.00
2017-11-19T00:31:33.108Z,14.00
2017-11-19T00:34:01.649Z,14.00
2017-11-19T00:36:29.869Z,14.00
2017-11-19T00:38:58.133Z,14.00
2017-11-19T00:41:26.370Z,14.00
2017-11-19T00:43:54.998Z,14.00
2017-11-19T00:46:23.567Z,14.00
2017-11-19T00:48:51.789Z,14.00
2017-11-19T00:51:20.030Z,14.00
2017-11-19T00:53:48.390Z,14.00
2017-11-19T00:56:16.633Z,14.00
2017-11-19T00:58:44.869Z,14.00
2017-11-19T01:01:13.141Z,14.00
2017-11-19T01:03:41.374Z,13.90
2017-11-19T01:06:09.989Z,13.90
2017-11-19T01:08:38.274Z,13.90
2017-11-19T01:11:06.502Z,13.90
2017-11-19T01:13:35.138Z,13.90
2017-11-19T01:16:03.373Z,13.90
2017-11-19T01:18:32.014Z,13.90
2017-11-19T01:21:00.686Z,13.90
2017-11-19T01:23:28.941Z,13.90
2017-11-19T01:25:57.174Z,13.90
2017-11-19T01:28:25.405Z,13.90
2017-11-19T01:30:53.652Z,13.90
2017-11-19T01:33:22.193Z,13.90
2017-11-19T01:35:50.428Z,13.90
2017-11-19T01:38:18.669Z,13.90
2017-11-19T01:40:47.634Z,13.90
2017-11-19T01:43:16.111Z,13.90
2017-11-19T01:45:44.492Z,13.90
2017-11-19T01:48:12.720Z,13.90
2017-11-19T01:50:40.945Z,13.90
2017-11-19T01:53:09.213Z,13.90
2017-11-19T01:55:37.449Z,13.90
2017-11-19T01:58:05.692Z,13.80
2017-11-19T02:00:34.350Z,13.90
2017-11-19T02:03:02.577Z,13.80
2017-11-19T02:05:30.809Z,13.80
2017-11-19T02:07:59.050Z,13.80
2017-11-19T02:10:27.659Z,13.80
2017-11-19T02:12:56.140Z,13.80
2017-11-19T02:15:24.385Z,13.80
2017-11-19T02:17:52.691Z,13.80
2017-11-19T02:20:20.913Z,13.80
2017-11-19T02:22:49.143Z,13.80
2017-11-19T02:25:18.444Z,13.80
2017-11-19T02:27:47.774Z,13.80
2017-11-19T02:30:16.627Z,13.80
2017-11-19T02:32:44.868Z,13.80
2017-11-19T02:35:13.106Z,13.80
2017-11-19T02:37:41.741Z,13.80
2017-11-19T02:40:09.980Z,13.80
2017-11-19T02:42:38.633Z,13.80
2017-11-19T02:45:07.112Z,13.80
2017-11-19T02:47:35.613Z,13.80
2017-11-19T02:50:04.264Z,13.70
2017-11-19T02:52:32.495Z,13.70
2017-11-19T02:55:00.737Z,13.70
2017-11-19T02:57:29.022Z,13.70
2017-11-19T02:59:57.254Z,13.70
2017-11-19T03:02:25.493Z,13.70
2017-11-19T03:04:53.733Z,13.70
2017-11-19T03:07:21.960Z,13.70
2017-11-19T03:09:50.193Z,13.70
2017-11-19T03:12:18.435Z,13.70
2017-11-19T03:14:46.705Z,13.70
2017-11-19T03:17:14.946Z,13.70
2017-11-19T03:19:43.170Z,13.70
2017-11-19T03:22:11.439Z,13.70
2017-11-19T03:24:39.680Z,13.70
2017-11-19T03:27:07.906Z,13.70
2017-11-19T03:29:36.181Z,13.70
2017-11-19T03:32:04.417Z,13.70
2017-11-19T03:34:32.646Z,13.70
2017-11-19T03:37:00.889Z,13.70
2017-11-19T03:39:29.126Z,13.70
2017-11-19T03:41:57.660Z,13.70
2017-11-19T03:44:25.893Z,13.70
2017-11-19T03:46:54.125Z,13.70
2017-11-19T03:49:23.070Z,13.60
2017-11-19T03:51:51.302Z,13.60
2017-11-19T03:54:19.934Z,13.70
2017-11-19T03:56:48.181Z,13.60
2017-11-19T03:59:16.413Z,13.70
2017-11-19T04:01:44.638Z,13.60
2017-11-19T04:04:12.894Z,13.60
2017-11-19T04:06:41.754Z,13.60
2017-11-19T04:09:09.989Z,13.60
2017-11-19T04:11:38.254Z,13.60
2017-11-19T04:14:06.499Z,13.60
2017-11-19T04:16:34.721Z,13.60
2017-11-19T04:19:02.975Z,13.60
2017-11-19T04:21:31.205Z,13.60
2017-11-19T04:23:59.443Z,13.60
2017-11-19T04:26:27.696Z,13.60
2017-11-19T04:28:55.935Z,13.60
2017-11-19T04:31:24.157Z,13.60
2017-11-19T04:33:52.425Z,13.60
2017-11-19T04:36:21.466Z,13.60
2017-11-19T04:38:49.693Z,13.60
2017-11-19T04:41:17.973Z,13.60
2017-11-19T04:43:46.202Z,13.60
2017-11-19T04:46:14.428Z,13.60
2017-11-19T04:48:42.675Z,13.60
2017-11-19T04:51:11.313Z,13.50
2017-11-19T04:53:39.545Z,13.50
2017-11-19T04:56:08.188Z,13.50
2017-11-19T04:58:36.420Z,13.50
2017-11-19T05:01:04.638Z,13.50
2017-11-19T05:03:32.875Z,13.50
2017-11-19T05:06:01.111Z,13.50
2017-11-19T05:08:29.338Z,13.50
2017-11-19T05:10:57.585Z,13.50
2017-11-19T05:13:26.205Z,13.50
2017-11-19T05:15:54.441Z,13.50
2017-11-19T05:18:23.078Z,13.50
2017-11-19T05:20:51.327Z,13.50
2017-11-19T05:23:19.564Z,13.50
2017-11-19T05:25:48.222Z,13.50
2017-11-19T05:28:16.450Z,13.50
2017-11-19T05:30:44.774Z,13.50
2017-11-19T05:33:13.043Z,13.50
2017-11-19T05:35:41.265Z,13.40
2017-11-19T05:38:09.585Z,13.50
2017-11-19T05:40:37.969Z,13.40
2017-11-19T05:43:06.200Z,13.40
2017-11-19T05:45:34.740Z,13.50
2017-11-19T05:48:03.001Z,13.50
2017-11-19T05:50:31.238Z,13.50
2017-11-19T05:52:59.559Z,13.40
2017-11-19T05:55:27.818Z,13.40
2017-11-19T05:57:56.051Z,13.40
2017-11-19T06:00:24.691Z,13.40
2017-11-19T06:02:52.934Z,13.40
2017-11-19T06:05:21.167Z,13.40
2017-11-19T06:07:49.406Z,13.40
2017-11-19T06:10:17.636Z,13.40
2017-11-19T06:12:46.253Z,13.40
2017-11-19T06:15:14.506Z,13.40
2017-11-19T06:17:42.740Z,13.40
2017-11-19T06:20:10.968Z,13.40
2017-11-19T06:22:39.496Z,13.40
2017-11-19T06:25:07.729Z,13.40
2017-11-19T06:27:35.960Z,13.40
2017-11-19T06:30:04.225Z,13.40
2017-11-19T06:32:32.453Z,13.40
2017-11-19T06:35:00.681Z,13.40
2017-11-19T06:37:29.253Z,13.40
2017-11-19T06:39:57.492Z,13.40
2017-11-19T06:42:25.715Z,13.40
2017-11-19T06:44:53.977Z,13.40
2017-11-19T06:47:22.209Z,13.40
2017-11-19T06:49:50.446Z,13.40
2017-11-19T06:52:18.700Z,13.40
2017-11-19T06:54:47.318Z,13.40
2017-11-19T06:57:15.934Z,13.40
2017-11-19T06:59:44.196Z,13.40
2017-11-19T07:02:12.423Z,13.40
2017-11-19T07:04:40.657Z,13.40
2017-11-19T07:07:08.916Z,13.40
2017-11-19T07:09:37.539Z,13.40
2017-11-19T07:12:05.765Z,13.40
2017-11-19T07:14:34.401Z,13.50
2017-11-19T07:17:02.639Z,13.50
2017-11-19T07:19:30.865Z,13.50
2017-11-19T07:21:59.122Z,13.50
2017-11-19T07:24:27.345Z,13.50
2017-11-19T07:26:55.995Z,13.50
2017-11-19T07:29:24.582Z,13.50
2017-11-19T07:31:52.893Z,13.50
2017-11-19T07:34:21.522Z,13.50
2017-11-19T07:36:49.761Z,13.50
2017-11-19T07:39:17.997Z,13.50
2017-11-19T07:41:46.269Z,13.60
2017-11-19T07:44:14.749Z,13.60
2017-11-19T07:46:43.114Z,13.60
2017-11-19T07:49:11.342Z,13.60
2017-11-19T07:51:39.974Z,13.70
2017-11-19T07:54:08.210Z,13.70
2017-11-19T07:56:36.443Z,13.70
2017-11-19T07:59:04.669Z,13.80
2017-11-19T08:01:32.934Z,13.80
2017-11-19T08:04:01.185Z,13.90
2017-11-19T08:06:29.420Z,13.90
2017-11-19T08:08:57.655Z,13.90
2017-11-19T08:11:26.281Z,14.00
2017-11-19T08:13:54.530Z,14.00
2017-11-19T08:16:22.774Z,14.00
2017-11-19T08:18:50.998Z,14.10
2017-11-19T08:21:19.265Z,14.10
2017-11-19T08:23:47.488Z,14.20
2017-11-19T08:26:15.722Z,14.20
2017-11-19T08:28:44.411Z,14.20
2017-11-19T08:31:12.643Z,14.20
2017-11-19T08:33:41.301Z,14.20
2017-11-19T08:36:09.545Z,14.20
2017-11-19T08:38:37.982Z,14.20
2017-11-19T08:41:06.648Z,14.20
2017-11-19T08:43:34.877Z,14.20
2017-11-19T08:46:03.120Z,14.20
2017-11-19T08:48:31.843Z,14.20
2017-11-19T08:51:00.143Z,14.20
2017-11-19T08:53:28.381Z,14.20
2017-11-19T08:55:56.685Z,14.20
2017-11-19T08:58:24.905Z,14.20
2017-11-19T09:00:53.531Z,14.30
2017-11-19T09:03:21.833Z,14.30
2017-11-19T09:05:50.054Z,14.30
2017-11-19T09:08:18.287Z,14.30
2017-11-19T09:10:46.633Z,14.30
2017-11-19T09:13:14.870Z,14.30
2017-11-19T09:15:43.495Z,14.30
2017-11-19T09:18:11.734Z,14.30
2017-11-19T09:20:40.363Z,14.30
2017-11-19T09:23:08.590Z,14.30
2017-11-19T09:25:37.238Z,14.20
2017-11-19T09:28:06.338Z,14.20
2017-11-19T09:30:35.325Z,14.20
2017-11-19T09:33:03.578Z,14.20
2017-11-19T09:35:31.834Z,14.30
2017-11-19T09:38:00.077Z,14.30
2017-11-19T09:40:29.217Z,14.20
2017-11-19T09:42:58.256Z,14.20
2017-11-19T09:45:26.729Z,14.20
2017-11-19T09:47:54.979Z,14.20
2017-11-19T09:50:23.223Z,14.20
2017-11-19T09:52:51.474Z,14.20
2017-11-19T09:55:19.707Z,14.20
2017-11-19T09:57:47.942Z,14.20
2017-11-19T10:00:16.898Z,14.20
2017-11-19T10:02:45.134Z,14.20
2017-11-19T10:05:13.370Z,14.20
2017-11-19T10:07:42.038Z,14.20
2017-11-19T10:10:10.299Z,14.30
2017-11-19T10:12:38.566Z,14.30
2017-11-19T10:15:06.857Z,14.20
2017-11-19T10:17:35.086Z,14.20
2017-11-19T10:20:03.404Z,14.20
2017-11-19T10:22:31.662Z,14.20
2017-11-19T10:24:59.891Z,14.30
2017-11-19T10:27:28.453Z,14.20
2017-11-19T10:29:56.686Z,14.20
2017-11-19T10:32:24.918Z,14.20
2017-11-19T10:34:53.555Z,14.30
2017-11-19T10:37:21.812Z,14.30
2017-11-19T10:39:50.046Z,14.30
2017-11-19T10:42:18.301Z,14.30
2017-11-19T10:44:46.537Z,14.30
2017-11-19T10:47:14.855Z,14.40
2017-11-19T10:49:43.109Z,14.40
2017-11-19T10:52:11.348Z,14.40
2017-11-19T10:54:39.965Z,14.40
2017-11-19T10:57:08.229Z,14.40
2017-11-19T10:59:36.457Z,14.40
2017-11-19T11:02:04.686Z,14.50
2017-11-19T11:04:32.946Z,14.50
2017-11-19T11:07:01.197Z,14.50
2017-11-19T11:09:29.834Z,14.50
2017-11-19T11:11:58.942Z,14.50
2017-11-19T11:14:27.157Z,14.50
2017-11-19T11:16:55.790Z,14.50
2017-11-19T11:19:24.344Z,14.50
2017-11-19T11:21:52.609Z,14.50
2017-11-19T11:24:20.869Z,14.50
2017-11-19T11:26:49.107Z,14.50
2017-11-19T11:29:17.344Z,14.50
2017-11-19T11:31:46.271Z,14.50
2017-11-19T11:34:14.568Z,14.50
2017-11-19T11:36:42.790Z,14.60
2017-11-19T11:39:11.033Z,14.70
2017-11-19T11:41:39.690Z,14.80
2017-11-19T11:44:07.913Z,14.80
2017-11-19T11:46:36.534Z,14.90
2017-11-19T11:49:04.777Z,14.90
2017-11-19T11:51:33.019Z,15.00
2017-11-19T11:54:02.028Z,15.00
2017-11-19T11:56:30.661Z,15.00
2017-11-19T11:58:58.914Z,15.00
2017-11-19T12:01:27.142Z,15.00
2017-11-19T12:03:55.614Z,15.00
2017-11-19T12:06:23.857Z,15.00
2017-11-19T12:08:52.110Z,15.00
2017-11-19T12:11:20.353Z,14.90
2017-11-19T12:13:48.603Z,14.90
2017-11-19T12:16:16.834Z,14.90
2017-11-19T12:18:45.098Z,14.90
2017-11-19T12:21:13.721Z,14.90
2017-11-19T12:23:42.230Z,14.90
2017-11-19T12:26:10.499Z,14.90
2017-11-19T12:28:38.735Z,14.80
2017-11-19T12:31:07.040Z,14.80
2017-11-19T12:33:35.272Z,14.80
2017-11-19T12:36:03.523Z,14.80
2017-11-19T12:38:32.091Z,14.70
2017-11-19T12:41:00.329Z,14.70
2017-11-19T12:43:28.569Z,14.70
2017-11-19T12:45:57.230Z,14.70
2017-11-19T12:48:25.474Z,14.60
2017-11-19T12:50:53.721Z,14.70
2017-11-19T12:53:22.029Z,14.70
2017-11-19T12:55:50.263Z,14.70
2017-11-19T12:58:18.889Z,14.70
2017-11-19T13:00:47.143Z,14.70
2017-11-19T13:03:15.370Z,14.70
2017-11-19T13:05:43.603Z,14.70
2017-11-19T13:08:11.866Z,14.60
2017-11-19T13:10:40.106Z,14.60
2017-11-19T13:13:08.376Z,14.70
2017-11-19T13:15:36.603Z,14.70
2017-11-19T13:18:04.833Z,14.70
2017-11-19T13:20:33.089Z,14.80
2017-11-19T13:23:01.315Z,14.80
2017-11-19T13:25:29.593Z,14.90
2017-11-19T13:27:57.857Z,15.10
2017-11-19T13:30:26.485Z,15.90
2017-11-19T13:32:54.825Z,15.90
2017-11-19T13:35:23.084Z,16.40
2017-11-19T13:37:51.722Z,17.20
2017-11-19T13:40:19.986Z,17.20
2017-11-19T13:42:48.621Z,17.70
2017-11-19T13:45:17.266Z,18.40
2017-11-19T13:47:45.553Z,18.40
2017-11-19T13:50:13.784Z,18.70
2017-11-19T13:52:42.017Z,18.80
2017-11-19T13:55:10.260Z,18.80
2017-11-19T13:57:38.766Z,18.70
2017-11-19T14:00:07.089Z,18.60
2017-11-19T14:02:35.357Z,18.50
2017-11-19T14:05:03.979Z,18.00
2017-11-19T14:07:32.222Z,18.00
2017-11-19T14:10:00.871Z,17.60
2017-11-19T14:12:29.331Z,17.60
2017-11-19T14:14:57.558Z,17.40
2017-11-19T14:17:26.236Z,17.10
2017-11-19T14:19:54.441Z,17.10
2017-11-19T14:22:22.671Z,16.90
2017-11-19T14:24:51.242Z,16.80
2017-11-19T14:27:20.398Z,16.50
2017-11-19T14:29:48.648Z,16.50
2017-11-19T14:32:16.890Z,16.40
2017-11-19T14:34:45.122Z,16.30
2017-11-19T14:37:13.461Z,16.20
2017-11-19T14:39:42.108Z,16.10
2017-11-19T14:42:10.346Z,16.10
2017-11-19T14:44:38.613Z,16.10
2017-11-19T14:47:06.846Z,16.00
2017-11-19T14:49:35.081Z,15.90
2017-11-19T14:52:04.158Z,15.80
2017-11-19T14:54:32.780Z,15.70
2017-11-19T14:57:01.010Z,15.70
2017-11-19T14:59:30.012Z,15.60
2017-11-19T15:01:58.640Z,15.50
2017-11-19T15:04:26.917Z,15.50
2017-11-19T15:06:55.162Z,15.50
2017-11-19T15:09:23.699Z,15.40
2017-11-19T15:11:51.957Z,15.40
2017-11-19T15:14:20.198Z,15.30
2017-11-19T15:16:48.429Z,15.30
2017-11-19T15:19:17.001Z,15.20
2017-11-19T15:21:45.237Z,15.20
2017-11-19T15:24:14.464Z,15.10
2017-11-19T15:26:42.726Z,15.10
2017-11-19T15:29:10.957Z,15.00
2017-11-19T15:31:39.583Z,15.00
2017-11-19T15:34:07.843Z,15.00
2017-11-19T15:36:36.069Z,14.90
2017-11-19T15:39:04.313Z,14.90
2017-11-19T15:41:32.572Z,14.90
2017-11-19T15:44:00.817Z,14.80
2017-11-19T15:46:29.457Z,14.80
2017-11-19T15:48:57.709Z,14.80
2017-11-19T15:51:26.013Z,14.80
2017-11-19T15:53:54.232Z,14.80
2017-11-19T15:56:22.498Z,14.80
2017-11-19T15:58:51.161Z,14.70
2017-11-19T16:01:19.447Z,14.70
2017-11-19T16:03:47.661Z,14.70
2017-11-19T16:06:16.737Z,14.70
2017-11-19T16:08:45.382Z,14.60
2017-11-19T16:11:13.630Z,14.70
2017-11-19T16:13:42.143Z,14.60
2017-11-19T16:16:10.521Z,14.60
2017-11-19T16:18:38.826Z,14.60
2017-11-19T16:21:07.450Z,14.60
2017-11-19T16:23:35.713Z,14.60
2017-11-19T16:26:03.953Z,14.60
2017-11-19T16:28:32.589Z,14.50
2017-11-19T16:31:00.829Z,14.50
2017-11-19T16:33:29.717Z,14.50
2017-11-19T16:35:58.338Z,14.50
2017-11-19T16:38:26.636Z,14.50
2017-11-19T16:40:54.897Z,14.40
2017-11-19T16:43:23.142Z,14.40
2017-11-19T16:45:51.418Z,14.40
2017-11-19T16:48:19.645Z,14.40
2017-11-19T16:50:48.096Z,14.40
2017-11-19T16:53:16.375Z,14.40
2017-11-19T16:55:44.884Z,14.40
2017-11-19T16:58:13.280Z,14.40
2017-11-19T17:00:41.938Z,14.30
2017-11-19T17:03:10.173Z,14.30
2017-11-19T17:05:38.405Z,14.30
2017-11-19T17:08:06.764Z,14.30
2017-11-19T17:10:35.052Z,14.30
2017-11-19T17:13:03.277Z,14.30
2017-11-19T17:15:31.607Z,14.30
2017-11-19T17:17:59.833Z,14.30
2017-11-19T17:20:28.087Z,14.30
2017-11-19T17:22:56.719Z,14.30
2017-11-19T17:25:24.965Z,14.30
2017-11-19T17:27:53.197Z,14.30
2017-11-19T17:30:21.448Z,14.20
2017-11-19T17:32:49.679Z,14.20
2017-11-19T17:35:17.921Z,14.20
2017-11-19T17:37:46.172Z,14.20
2017-11-19T17:40:14.412Z,14.20
2017-11-19T17:42:42.647Z,14.20
2017-11-19T17:45:11.016Z,14.20
2017-11-19T17:47:39.234Z,14.20
2017-11-19T17:50:07.492Z,14.20
2017-11-19T17:52:36.963Z,14.20
2017-11-19T17:55:05.185Z,14.20
2017-11-19T17:57:33.814Z,14.20
2017-11-19T18:00:02.081Z,14.20
2017-11-19T18:02:30.314Z,14.20
2017-11-19T18:04:58.972Z,14.20
2017-11-19T18:07:27.222Z,14.20
2017-11-19T18:09:55.450Z,14.20
2017-11-19T18:12:24.090Z,14.10
2017-11-19T18:14:52.340Z,14.10
2017-11-19T18:17:20.599Z,14.10
2017-11-19T18:19:49.235Z,14.10
2017-11-19T18:22:17.470Z,14.10
2017-11-19T18:24:45.737Z,14.10
2017-11-19T18:27:14.374Z,14.10
2017-11-19T18:29:42.675Z,14.10
2017-11-19T18:32:11.313Z,14.10
2017-11-19T18:34:39.597Z,14.10
2017-11-19T18:37:07.833Z,14.10
2017-11-19T18:39:36.069Z,14.00
2017-11-19T18:42:04.380Z,14.00
2017-11-19T18:44:33.040Z,14.00
2017-11-19T18:47:01.321Z,14.00
2017-11-19T18:49:29.985Z,14.00
2017-11-19T18:51:58.208Z,14.00
2017-11-19T18:54:26.442Z,14.00
2017-11-19T18:56:54.718Z,14.00
2017-11-19T18:59:22.945Z,14.00
2017-11-19T19:01:51.181Z,14.00
2017-11-19T19:04:19.846Z,13.90
2017-11-19T19:06:48.089Z,13.90
2017-11-19T19:09:16.325Z,13.90
2017-11-19T19:11:45.145Z,13.90
2017-11-19T19:14:13.383Z,13.90
2017-11-19T19:16:42.016Z,13.90
2017-11-19T19:19:10.286Z,13.90
2017-11-19T19:21:38.521Z,13.90
2017-11-19T19:24:07.489Z,13.90
2017-11-19T19:26:35.731Z,13.90
2017-11-19T19:29:03.957Z,13.90
2017-11-19T19:31:32.824Z,13.80
2017-11-19T19:34:01.057Z,13.80
2017-11-19T19:36:29.288Z,13.80
2017-11-19T19:38:57.539Z,13.80
2017-11-19T19:41:25.774Z,13.80
2017-11-19T19:43:54.008Z,13.80
2017-11-19T19:46:22.270Z,13.80
2017-11-19T19:48:50.500Z,13.80
2017-11-19T19:51:19.064Z,13.80
2017-11-19T19:53:47.296Z,13.80
2017-11-19T19:56:16.150Z,13.80
2017-11-19T19:58:44.392Z,13.70
2017-11-19T20:01:12.673Z,13.70
2017-11-19T20:03:40.906Z,13.70
2017-11-19T20:06:09.129Z,13.70
2017-11-19T20:08:38.013Z,13.70
2017-11-19T20:11:06.648Z,13.70
2017-11-19T20:13:34.943Z,13.70
2017-11-19T20:16:03.560Z,13.70
2017-11-19T20:18:31.787Z,13.70
2017-11-19T20:21:00.021Z,13.70
2017-11-19T20:23:28.862Z,13.70
2017-11-19T20:25:57.093Z,13.70
2017-11-19T20:28:25.326Z,13.70
2017-11-19T20:30:53.912Z,13.70
2017-11-19T20:33:22.152Z,13.70
2017-11-19T20:35:50.395Z,13.70
2017-11-19T20:38:19.073Z,13.70
2017-11-19T20:40:49.249Z,13.70
2017-11-19T20:43:17.481Z,13.70
2017-11-19T20:45:56.466Z,13.70
2017-11-19T20:48:24.946Z,13.70
2017-11-19T20:50:53.194Z,13.70
2017-11-19T20:53:21.466Z,13.70
2017-11-19T20:55:49.699Z,13.70
2017-11-19T20:58:18.348Z,13.70
2017-11-19T21:00:50.645Z,13.70
2017-11-19T21:03:19.449Z,13.70
2017-11-19T21:05:48.095Z,13.70
2017-11-19T21:08:16.348Z,13.70
2017-11-19T21:10:46.110Z,13.70
2017-11-19T21:13:14.486Z,13.70
2017-11-19T21:15:42.718Z,13.70
2017-11-19T21:18:11.173Z,13.70
2017-11-19T21:20:39.397Z,13.70
2017-11-19T21:23:07.769Z,13.70
2017-11-19T21:25:36.046Z,13.70
2017-11-19T21:28:04.270Z,13.70
2017-11-19T21:30:32.561Z,13.70
2017-11-19T21:33:00.809Z,13.70
2017-11-19T21:35:29.834Z,13.70
2017-11-19T21:37:59.273Z,13.70
2017-11-19T21:40:27.502Z,13.70
2017-11-19T21:42:55.936Z,13.70
2017-11-19T21:45:24.197Z,13.70
2017-11-19T21:47:52.473Z,13.70
2017-11-19T21:50:20.689Z,13.70
2017-11-19T21:52:49.349Z,13.70
2017-11-19T21:55:17.592Z,13.70
2017-11-19T21:57:45.831Z,13.70
2017-11-19T22:00:14.494Z,13.70
2017-11-19T22:02:43.142Z,13.60
2017-11-19T22:05:11.392Z,13.70
2017-11-19T22:07:40.876Z,13.60
2017-11-19T22:10:09.510Z,13.60
2017-11-19T22:12:38.010Z,13.60
2017-11-19T22:15:06.252Z,13.60
2017-11-19T22:17:34.485Z,13.60
2017-11-19T22:20:03.130Z,13.60
2017-11-19T22:22:31.373Z,13.60
2017-11-19T22:24:59.683Z,13.60
2017-11-19T22:27:27.950Z,13.60
2017-11-19T22:29:56.202Z,13.60
2017-11-19T22:32:24.460Z,13.60
2017-11-19T22:34:53.112Z,13.60
2017-11-19T22:37:21.474Z,13.60
2017-11-19T22:39:49.753Z,13.60
2017-11-19T22:42:18.113Z,13.60
2017-11-19T22:44:46.343Z,13.60
2017-11-19T22:47:14.982Z,13.50
2017-11-19T22:49:43.273Z,13.50
2017-11-19T22:52:11.558Z,13.50
2017-11-19T22:54:39.782Z,13.50
2017-11-19T22:57:08.028Z,13.50
2017-11-19T22:59:36.661Z,13.50
2017-11-19T23:02:05.718Z,13.50
2017-11-19T23:04:34.045Z,13.50
2017-11-19T23:07:02.279Z,13.50
2017-11-19T23:09:30.812Z,13.50
2017-11-19T23:11:59.065Z,13.40
2017-11-19T23:14:27.572Z,13.40
2017-11-19T23:16:55.804Z,13.40
2017-11-19T23:19:24.071Z,13.40
2017-11-19T23:21:52.293Z,13.40
2017-11-19T23:24:20.541Z,13.40
2017-11-19T23:26:48.806Z,13.40
2017-11-19T23:29:18.147Z,13.40
2017-11-19T23:31:47.653Z,13.40
2017-11-19T23:34:15.904Z,13.40
2017-11-19T23:36:44.406Z,13.30
2017-11-19T23:39:12.649Z,13.40
2017-11-19T23:41:40.927Z,13.30
2017-11-19T23:44:09.164Z,13.30
2017-11-19T23:46:37.786Z,13.30
2017-11-19T23:49:06.059Z,13.30
2017-11-19T23:51:34.424Z,13.30
2017-11-19T23:54:02.659Z,13.30
2017-11-19T23:56:30.916Z,13.30
2017-11-19T23:58:59.141Z,13.30
